sensor_id;sensor_type;location;lat;lon;timestamp;temperature;humidity
55771;DHT22;41687;-33.234;-60.334;2023-05-18T00:01:41;18.50;85.90
55771;DHT22;41687;-33.234;-60.334;2023-05-18T00:04:10;18.50;85.40
55771;DHT22;41687;-33.234;-60.334;2023-05-18T00:06:38;18.50;85.40
55771;DHT22;41687;-33.234;-60.334;2023-05-18T00:09:07;18.40;85.60
55771;DHT22;41687;-33.234;-60.334;2023-05-18T00:11:35;18.40;85.30
55771;DHT22;41687;-33.234;-60.334;2023-05-18T00:14:07;18.40;85.40
55771;DHT22;41687;-33.234;-60.334;2023-05-18T00:16:35;18.40;85.60
55771;DHT22;41687;-33.234;-60.334;2023-05-18T00:19:03;18.30;86.10
55771;DHT22;41687;-33.234;-60.334;2023-05-18T00:21:31;18.20;86.40
55771;DHT22;41687;-33.234;-60.334;2023-05-18T00:24:00;18.20;86.30
55771;DHT22;41687;-33.234;-60.334;2023-05-18T00:26:29;18.20;86.50
55771;DHT22;41687;-33.234;-60.334;2023-05-18T00:28:58;18.20;86.40
55771;DHT22;41687;-33.234;-60.334;2023-05-18T00:31:26;18.20;86.00
55771;DHT22;41687;-33.234;-60.334;2023-05-18T00:33:55;18.30;85.60
55771;DHT22;41687;-33.234;-60.334;2023-05-18T00:36:22;18.30;85.10
55771;DHT22;41687;-33.234;-60.334;2023-05-18T00:38:51;18.30;84.80
55771;DHT22;41687;-33.234;-60.334;2023-05-18T00:41:19;18.30;84.50
55771;DHT22;41687;-33.234;-60.334;2023-05-18T00:43:48;18.30;84.20
55771;DHT22;41687;-33.234;-60.334;2023-05-18T00:46:17;18.40;83.80
55771;DHT22;41687;-33.234;-60.334;2023-05-18T00:48:45;18.40;83.50
55771;DHT22;41687;-33.234;-60.334;2023-05-18T00:51:14;18.40;82.80
55771;DHT22;41687;-33.234;-60.334;2023-05-18T00:53:43;18.50;82.50
55771;DHT22;41687;-33.234;-60.334;2023-05-18T00:56:12;18.50;82.60
55771;DHT22;41687;-33.234;-60.334;2023-05-18T00:58:41;18.50;82.50
55771;DHT22;41687;-33.234;-60.334;2023-05-18T01:01:09;18.40;82.60
55771;DHT22;41687;-33.234;-60.334;2023-05-18T01:03:38;18.40;82.80
55771;DHT22;41687;-33.234;-60.334;2023-05-18T01:06:07;18.40;83.30
55771;DHT22;41687;-33.234;-60.334;2023-05-18T01:08:37;18.40;83.50
55771;DHT22;41687;-33.234;-60.334;2023-05-18T01:14:08;18.30;83.90
55771;DHT22;41687;-33.234;-60.334;2023-05-18T01:17:04;18.20;84.50
55771;DHT22;41687;-33.234;-60.334;2023-05-18T01:22:16;18.10;85.00
55771;DHT22;41687;-33.234;-60.334;2023-05-18T01:24:48;18.10;85.00
55771;DHT22;41687;-33.234;-60.334;2023-05-18T01:27:21;18.10;85.40
55771;DHT22;41687;-33.234;-60.334;2023-05-18T01:29:54;18.10;85.30
55771;DHT22;41687;-33.234;-60.334;2023-05-18T01:32:22;18.10;85.40
55771;DHT22;41687;-33.234;-60.334;2023-05-18T01:34:50;18.00;85.90
55771;DHT22;41687;-33.234;-60.334;2023-05-18T01:37:18;17.90;86.30
55771;DHT22;41687;-33.234;-60.334;2023-05-18T01:39:46;17.90;86.30
55771;DHT22;41687;-33.234;-60.334;2023-05-18T01:42:20;18.00;86.30
55771;DHT22;41687;-33.234;-60.334;2023-05-18T01:44:53;18.10;86.50
55771;DHT22;41687;-33.234;-60.334;2023-05-18T01:47:24;18.10;87.20
55771;DHT22;41687;-33.234;-60.334;2023-05-18T01:50:16;18.10;87.00
55771;DHT22;41687;-33.234;-60.334;2023-05-18T01:52:57;18.10;86.40
55771;DHT22;41687;-33.234;-60.334;2023-05-18T01:55:29;18.30;85.30
55771;DHT22;41687;-33.234;-60.334;2023-05-18T01:57:57;18.40;84.60
55771;DHT22;41687;-33.234;-60.334;2023-05-18T02:00:27;18.50;83.80
55771;DHT22;41687;-33.234;-60.334;2023-05-18T02:02:54;18.60;83.20
55771;DHT22;41687;-33.234;-60.334;2023-05-18T02:05:22;18.70;82.80
55771;DHT22;41687;-33.234;-60.334;2023-05-18T02:07:50;18.70;82.60
55771;DHT22;41687;-33.234;-60.334;2023-05-18T02:10:18;18.80;82.60
55771;DHT22;41687;-33.234;-60.334;2023-05-18T02:12:46;18.80;82.60
55771;DHT22;41687;-33.234;-60.334;2023-05-18T02:15:18;18.80;83.00
55771;DHT22;41687;-33.234;-60.334;2023-05-18T02:17:48;18.80;83.30
55771;DHT22;41687;-33.234;-60.334;2023-05-18T02:20:16;18.70;83.90
55771;DHT22;41687;-33.234;-60.334;2023-05-18T02:22:46;18.50;84.40
55771;DHT22;41687;-33.234;-60.334;2023-05-18T02:25:14;18.40;84.90
55771;DHT22;41687;-33.234;-60.334;2023-05-18T02:27:41;18.30;85.30
55771;DHT22;41687;-33.234;-60.334;2023-05-18T02:30:09;18.10;85.80
55771;DHT22;41687;-33.234;-60.334;2023-05-18T02:32:38;18.00;86.40
55771;DHT22;41687;-33.234;-60.334;2023-05-18T02:35:08;17.90;87.10
55771;DHT22;41687;-33.234;-60.334;2023-05-18T02:37:36;17.80;86.80
55771;DHT22;41687;-33.234;-60.334;2023-05-18T02:40:14;17.80;87.10
55771;DHT22;41687;-33.234;-60.334;2023-05-18T02:42:44;17.70;87.40
55771;DHT22;41687;-33.234;-60.334;2023-05-18T02:45:12;17.60;87.40
55771;DHT22;41687;-33.234;-60.334;2023-05-18T02:47:42;17.50;87.60
55771;DHT22;41687;-33.234;-60.334;2023-05-18T02:50:10;17.40;87.70
55771;DHT22;41687;-33.234;-60.334;2023-05-18T02:52:38;17.40;87.90
55771;DHT22;41687;-33.234;-60.334;2023-05-18T02:55:06;17.30;87.90
55771;DHT22;41687;-33.234;-60.334;2023-05-18T02:57:49;17.20;87.90
55771;DHT22;41687;-33.234;-60.334;2023-05-18T03:00:29;17.10;88.10
55771;DHT22;41687;-33.234;-60.334;2023-05-18T03:02:57;17.10;88.70
55771;DHT22;41687;-33.234;-60.334;2023-05-18T03:05:26;17.00;88.80
55771;DHT22;41687;-33.234;-60.334;2023-05-18T03:07:54;16.90;88.80
55771;DHT22;41687;-33.234;-60.334;2023-05-18T03:10:22;16.90;88.90
55771;DHT22;41687;-33.234;-60.334;2023-05-18T03:12:50;16.80;88.50
55771;DHT22;41687;-33.234;-60.334;2023-05-18T03:15:17;16.80;88.60
55771;DHT22;41687;-33.234;-60.334;2023-05-18T03:17:45;16.70;88.60
55771;DHT22;41687;-33.234;-60.334;2023-05-18T03:20:13;16.70;88.60
55771;DHT22;41687;-33.234;-60.334;2023-05-18T03:22:42;16.70;88.40
55771;DHT22;41687;-33.234;-60.334;2023-05-18T03:25:09;16.60;88.60
55771;DHT22;41687;-33.234;-60.334;2023-05-18T03:27:38;16.70;88.30
55771;DHT22;41687;-33.234;-60.334;2023-05-18T03:30:06;16.60;88.70
55771;DHT22;41687;-33.234;-60.334;2023-05-18T03:32:35;16.50;88.90
55771;DHT22;41687;-33.234;-60.334;2023-05-18T03:35:03;16.50;88.70
55771;DHT22;41687;-33.234;-60.334;2023-05-18T03:37:32;16.50;88.70
55771;DHT22;41687;-33.234;-60.334;2023-05-18T03:40:08;16.50;88.60
55771;DHT22;41687;-33.234;-60.334;2023-05-18T03:42:38;16.40;88.90
55771;DHT22;41687;-33.234;-60.334;2023-05-18T03:45:07;16.40;89.00
55771;DHT22;41687;-33.234;-60.334;2023-05-18T03:47:36;16.40;89.10
55771;DHT22;41687;-33.234;-60.334;2023-05-18T03:50:05;16.40;89.10
55771;DHT22;41687;-33.234;-60.334;2023-05-18T03:52:34;16.40;89.00
55771;DHT22;41687;-33.234;-60.334;2023-05-18T03:55:02;16.30;89.10
55771;DHT22;41687;-33.234;-60.334;2023-05-18T03:57:32;16.30;89.20
55771;DHT22;41687;-33.234;-60.334;2023-05-18T04:00:01;16.20;89.30
55771;DHT22;41687;-33.234;-60.334;2023-05-18T04:02:45;16.20;89.40
55771;DHT22;41687;-33.234;-60.334;2023-05-18T04:05:17;16.20;89.50
55771;DHT22;41687;-33.234;-60.334;2023-05-18T04:07:46;16.20;89.50
55771;DHT22;41687;-33.234;-60.334;2023-05-18T04:10:13;16.20;89.80
55771;DHT22;41687;-33.234;-60.334;2023-05-18T04:12:43;16.20;89.90
55771;DHT22;41687;-33.234;-60.334;2023-05-18T04:15:10;16.10;90.00
55771;DHT22;41687;-33.234;-60.334;2023-05-18T04:17:40;16.10;90.00
55771;DHT22;41687;-33.234;-60.334;2023-05-18T04:20:12;16.10;90.20
55771;DHT22;41687;-33.234;-60.334;2023-05-18T04:22:41;16.10;90.20
55771;DHT22;41687;-33.234;-60.334;2023-05-18T04:25:09;16.10;90.30
55771;DHT22;41687;-33.234;-60.334;2023-05-18T04:27:38;16.10;90.40
55771;DHT22;41687;-33.234;-60.334;2023-05-18T04:30:07;16.10;90.40
55771;DHT22;41687;-33.234;-60.334;2023-05-18T04:32:39;16.10;90.40
55771;DHT22;41687;-33.234;-60.334;2023-05-18T04:35:09;16.00;90.60
55771;DHT22;41687;-33.234;-60.334;2023-05-18T04:37:37;16.10;90.60
55771;DHT22;41687;-33.234;-60.334;2023-05-18T04:40:12;16.00;90.70
55771;DHT22;41687;-33.234;-60.334;2023-05-18T04:42:44;16.00;90.90
55771;DHT22;41687;-33.234;-60.334;2023-05-18T04:45:17;16.00;91.10
55771;DHT22;41687;-33.234;-60.334;2023-05-18T04:47:50;16.00;91.20
55771;DHT22;41687;-33.234;-60.334;2023-05-18T04:50:22;16.00;91.20
55771;DHT22;41687;-33.234;-60.334;2023-05-18T04:52:52;16.10;91.30
55771;DHT22;41687;-33.234;-60.334;2023-05-18T04:55:25;16.10;91.60
55771;DHT22;41687;-33.234;-60.334;2023-05-18T04:57:56;16.10;91.50
55771;DHT22;41687;-33.234;-60.334;2023-05-18T05:00:28;16.10;92.10
55771;DHT22;41687;-33.234;-60.334;2023-05-18T05:02:56;16.00;92.60
55771;DHT22;41687;-33.234;-60.334;2023-05-18T05:05:24;16.00;93.00
55771;DHT22;41687;-33.234;-60.334;2023-05-18T05:07:53;16.00;93.20
55771;DHT22;41687;-33.234;-60.334;2023-05-18T05:10:21;16.00;92.90
55771;DHT22;41687;-33.234;-60.334;2023-05-18T05:12:49;16.00;92.90
55771;DHT22;41687;-33.234;-60.334;2023-05-18T05:15:18;16.00;93.00
55771;DHT22;41687;-33.234;-60.334;2023-05-18T05:17:48;16.00;93.40
55771;DHT22;41687;-33.234;-60.334;2023-05-18T05:20:17;15.90;93.60
55771;DHT22;41687;-33.234;-60.334;2023-05-18T05:22:44;16.00;93.80
55771;DHT22;41687;-33.234;-60.334;2023-05-18T05:25:16;15.90;93.70
55771;DHT22;41687;-33.234;-60.334;2023-05-18T05:27:45;15.90;93.90
55771;DHT22;41687;-33.234;-60.334;2023-05-18T05:30:13;15.90;94.00
55771;DHT22;41687;-33.234;-60.334;2023-05-18T05:32:42;15.80;94.10
55771;DHT22;41687;-33.234;-60.334;2023-05-18T05:35:10;15.80;94.40
55771;DHT22;41687;-33.234;-60.334;2023-05-18T05:37:38;15.80;94.50
55771;DHT22;41687;-33.234;-60.334;2023-05-18T05:40:07;15.80;94.70
55771;DHT22;41687;-33.234;-60.334;2023-05-18T05:42:41;15.80;94.70
55771;DHT22;41687;-33.234;-60.334;2023-05-18T05:45:10;15.80;94.50
55771;DHT22;41687;-33.234;-60.334;2023-05-18T05:47:47;15.80;95.00
55771;DHT22;41687;-33.234;-60.334;2023-05-18T05:50:17;15.90;95.30
55771;DHT22;41687;-33.234;-60.334;2023-05-18T05:52:46;15.80;95.30
55771;DHT22;41687;-33.234;-60.334;2023-05-18T05:55:15;15.80;95.20
55771;DHT22;41687;-33.234;-60.334;2023-05-18T05:57:42;15.90;95.70
55771;DHT22;41687;-33.234;-60.334;2023-05-18T06:00:14;15.90;95.80
55771;DHT22;41687;-33.234;-60.334;2023-05-18T06:02:47;15.90;95.20
55771;DHT22;41687;-33.234;-60.334;2023-05-18T06:05:23;15.90;95.50
55771;DHT22;41687;-33.234;-60.334;2023-05-18T06:07:52;15.90;95.70
55771;DHT22;41687;-33.234;-60.334;2023-05-18T06:10:21;15.90;95.80
55771;DHT22;41687;-33.234;-60.334;2023-05-18T06:12:48;16.00;96.10
55771;DHT22;41687;-33.234;-60.334;2023-05-18T06:15:17;16.00;95.90
55771;DHT22;41687;-33.234;-60.334;2023-05-18T06:17:45;16.10;96.10
55771;DHT22;41687;-33.234;-60.334;2023-05-18T06:20:13;16.10;96.20
55771;DHT22;41687;-33.234;-60.334;2023-05-18T06:22:41;16.10;96.20
55771;DHT22;41687;-33.234;-60.334;2023-05-18T06:25:21;16.10;96.80
55771;DHT22;41687;-33.234;-60.334;2023-05-18T06:28:19;16.10;96.50
55771;DHT22;41687;-33.234;-60.334;2023-05-18T06:31:11;16.00;96.40
55771;DHT22;41687;-33.234;-60.334;2023-05-18T06:33:48;16.00;96.40
55771;DHT22;41687;-33.234;-60.334;2023-05-18T06:36:16;16.00;96.60
55771;DHT22;41687;-33.234;-60.334;2023-05-18T06:38:44;16.00;96.50
55771;DHT22;41687;-33.234;-60.334;2023-05-18T06:41:12;16.00;96.50
55771;DHT22;41687;-33.234;-60.334;2023-05-18T06:43:40;15.90;96.50
55771;DHT22;41687;-33.234;-60.334;2023-05-18T06:46:37;15.90;96.70
55771;DHT22;41687;-33.234;-60.334;2023-05-18T06:49:17;15.90;96.30
55771;DHT22;41687;-33.234;-60.334;2023-05-18T06:51:45;15.90;96.50
55771;DHT22;41687;-33.234;-60.334;2023-05-18T06:54:13;15.90;96.50
55771;DHT22;41687;-33.234;-60.334;2023-05-18T06:56:41;15.90;96.60
55771;DHT22;41687;-33.234;-60.334;2023-05-18T06:59:08;15.90;96.50
55771;DHT22;41687;-33.234;-60.334;2023-05-18T07:01:36;15.80;96.80
55771;DHT22;41687;-33.234;-60.334;2023-05-18T07:04:04;15.80;97.00
55771;DHT22;41687;-33.234;-60.334;2023-05-18T07:06:32;15.80;97.30
55771;DHT22;41687;-33.234;-60.334;2023-05-18T07:09:00;15.80;97.50
55771;DHT22;41687;-33.234;-60.334;2023-05-18T07:11:28;15.80;97.60
55771;DHT22;41687;-33.234;-60.334;2023-05-18T07:13:56;15.80;97.80
55771;DHT22;41687;-33.234;-60.334;2023-05-18T07:16:25;15.70;97.80
55771;DHT22;41687;-33.234;-60.334;2023-05-18T07:18:55;15.70;97.70
55771;DHT22;41687;-33.234;-60.334;2023-05-18T07:21:23;15.70;98.00
55771;DHT22;41687;-33.234;-60.334;2023-05-18T07:23:51;15.60;97.70
55771;DHT22;41687;-33.234;-60.334;2023-05-18T07:26:19;15.50;98.10
55771;DHT22;41687;-33.234;-60.334;2023-05-18T07:28:48;15.50;97.90
55771;DHT22;41687;-33.234;-60.334;2023-05-18T07:31:17;15.50;98.00
55771;DHT22;41687;-33.234;-60.334;2023-05-18T07:33:47;15.50;97.90
55771;DHT22;41687;-33.234;-60.334;2023-05-18T07:36:14;15.50;97.90
55771;DHT22;41687;-33.234;-60.334;2023-05-18T07:38:42;15.50;97.90
55771;DHT22;41687;-33.234;-60.334;2023-05-18T07:41:09;15.50;97.60
55771;DHT22;41687;-33.234;-60.334;2023-05-18T07:43:37;15.40;97.40
55771;DHT22;41687;-33.234;-60.334;2023-05-18T07:46:05;15.40;97.40
55771;DHT22;41687;-33.234;-60.334;2023-05-18T07:48:32;15.40;97.10
55771;DHT22;41687;-33.234;-60.334;2023-05-18T07:50:59;15.40;96.90
55771;DHT22;41687;-33.234;-60.334;2023-05-18T07:53:27;15.30;96.60
55771;DHT22;41687;-33.234;-60.334;2023-05-18T07:55:55;15.30;96.50
55771;DHT22;41687;-33.234;-60.334;2023-05-18T07:58:22;15.30;96.50
55771;DHT22;41687;-33.234;-60.334;2023-05-18T08:00:50;15.30;96.00
55771;DHT22;41687;-33.234;-60.334;2023-05-18T08:03:18;15.20;95.80
55771;DHT22;41687;-33.234;-60.334;2023-05-18T08:05:45;15.20;95.80
55771;DHT22;41687;-33.234;-60.334;2023-05-18T08:08:13;15.20;95.60
55771;DHT22;41687;-33.234;-60.334;2023-05-18T08:10:44;15.20;95.60
55771;DHT22;41687;-33.234;-60.334;2023-05-18T08:13:11;15.10;95.50
55771;DHT22;41687;-33.234;-60.334;2023-05-18T08:15:39;15.00;95.80
55771;DHT22;41687;-33.234;-60.334;2023-05-18T08:18:07;15.00;95.60
55771;DHT22;41687;-33.234;-60.334;2023-05-18T08:20:34;14.90;95.50
55771;DHT22;41687;-33.234;-60.334;2023-05-18T08:23:01;14.90;95.70
55771;DHT22;41687;-33.234;-60.334;2023-05-18T08:25:30;14.90;95.60
55771;DHT22;41687;-33.234;-60.334;2023-05-18T08:27:58;14.90;95.50
55771;DHT22;41687;-33.234;-60.334;2023-05-18T08:30:25;14.90;95.30
55771;DHT22;41687;-33.234;-60.334;2023-05-18T08:32:53;14.80;95.30
55771;DHT22;41687;-33.234;-60.334;2023-05-18T08:35:21;14.80;95.40
55771;DHT22;41687;-33.234;-60.334;2023-05-18T08:37:48;14.80;95.10
55771;DHT22;41687;-33.234;-60.334;2023-05-18T08:40:16;14.70;95.20
55771;DHT22;41687;-33.234;-60.334;2023-05-18T08:43:02;14.70;95.00
55771;DHT22;41687;-33.234;-60.334;2023-05-18T08:45:49;14.60;95.00
55771;DHT22;41687;-33.234;-60.334;2023-05-18T08:48:20;14.60;94.90
55771;DHT22;41687;-33.234;-60.334;2023-05-18T08:50:51;14.50;95.00
55771;DHT22;41687;-33.234;-60.334;2023-05-18T08:53:20;14.50;94.90
55771;DHT22;41687;-33.234;-60.334;2023-05-18T08:55:53;14.40;94.80
55771;DHT22;41687;-33.234;-60.334;2023-05-18T08:58:29;14.40;94.70
55771;DHT22;41687;-33.234;-60.334;2023-05-18T09:00:59;14.40;94.90
55771;DHT22;41687;-33.234;-60.334;2023-05-18T09:03:28;14.30;94.80
55771;DHT22;41687;-33.234;-60.334;2023-05-18T09:05:58;14.30;94.60
55771;DHT22;41687;-33.234;-60.334;2023-05-18T09:08:28;14.30;94.60
55771;DHT22;41687;-33.234;-60.334;2023-05-18T09:10:57;14.30;94.50
55771;DHT22;41687;-33.234;-60.334;2023-05-18T09:13:24;14.30;94.50
55771;DHT22;41687;-33.234;-60.334;2023-05-18T09:15:52;14.20;94.40
55771;DHT22;41687;-33.234;-60.334;2023-05-18T09:18:20;14.20;94.50
55771;DHT22;41687;-33.234;-60.334;2023-05-18T09:20:48;14.20;94.50
55771;DHT22;41687;-33.234;-60.334;2023-05-18T09:23:16;14.20;94.40
55771;DHT22;41687;-33.234;-60.334;2023-05-18T09:25:44;14.20;94.30
55771;DHT22;41687;-33.234;-60.334;2023-05-18T09:28:21;14.10;94.30
55771;DHT22;41687;-33.234;-60.334;2023-05-18T09:30:52;14.10;94.40
55771;DHT22;41687;-33.234;-60.334;2023-05-18T09:33:20;14.10;94.30
55771;DHT22;41687;-33.234;-60.334;2023-05-18T09:35:51;14.00;94.30
55771;DHT22;41687;-33.234;-60.334;2023-05-18T09:38:21;14.00;94.30
55771;DHT22;41687;-33.234;-60.334;2023-05-18T09:40:50;14.10;94.10
55771;DHT22;41687;-33.234;-60.334;2023-05-18T09:43:17;14.00;94.10
55771;DHT22;41687;-33.234;-60.334;2023-05-18T09:45:47;14.00;93.90
55771;DHT22;41687;-33.234;-60.334;2023-05-18T09:48:15;13.90;94.20
55771;DHT22;41687;-33.234;-60.334;2023-05-18T09:50:44;13.90;94.00
55771;DHT22;41687;-33.234;-60.334;2023-05-18T09:53:13;13.90;94.00
55771;DHT22;41687;-33.234;-60.334;2023-05-18T09:55:46;13.80;93.90
55771;DHT22;41687;-33.234;-60.334;2023-05-18T09:58:14;13.80;93.90
55771;DHT22;41687;-33.234;-60.334;2023-05-18T10:00:44;13.80;94.20
55771;DHT22;41687;-33.234;-60.334;2023-05-18T10:03:23;13.80;93.90
55771;DHT22;41687;-33.234;-60.334;2023-05-18T10:05:50;13.70;93.70
55771;DHT22;41687;-33.234;-60.334;2023-05-18T10:08:17;13.70;93.80
55771;DHT22;41687;-33.234;-60.334;2023-05-18T10:10:48;13.70;93.60
55771;DHT22;41687;-33.234;-60.334;2023-05-18T10:13:16;13.70;93.40
55771;DHT22;41687;-33.234;-60.334;2023-05-18T10:15:48;13.70;93.40
55771;DHT22;41687;-33.234;-60.334;2023-05-18T10:18:21;13.70;93.40
55771;DHT22;41687;-33.234;-60.334;2023-05-18T10:20:51;13.60;93.20
55771;DHT22;41687;-33.234;-60.334;2023-05-18T10:23:19;13.60;93.10
55771;DHT22;41687;-33.234;-60.334;2023-05-18T10:25:48;13.60;93.10
55771;DHT22;41687;-33.234;-60.334;2023-05-18T10:28:21;13.60;93.20
55771;DHT22;41687;-33.234;-60.334;2023-05-18T10:30:58;13.60;93.20
55771;DHT22;41687;-33.234;-60.334;2023-05-18T10:33:27;13.60;93.00
55771;DHT22;41687;-33.234;-60.334;2023-05-18T10:35:55;13.60;92.70
55771;DHT22;41687;-33.234;-60.334;2023-05-18T10:38:24;13.50;92.80
55771;DHT22;41687;-33.234;-60.334;2023-05-18T10:40:54;13.50;92.90
55771;DHT22;41687;-33.234;-60.334;2023-05-18T10:43:23;13.50;92.80
55771;DHT22;41687;-33.234;-60.334;2023-05-18T10:45:55;13.40;92.70
55771;DHT22;41687;-33.234;-60.334;2023-05-18T10:48:24;13.40;92.90
55771;DHT22;41687;-33.234;-60.334;2023-05-18T10:50:54;13.50;92.80
55771;DHT22;41687;-33.234;-60.334;2023-05-18T10:53:27;13.40;92.90
55771;DHT22;41687;-33.234;-60.334;2023-05-18T10:55:57;13.40;93.00
55771;DHT22;41687;-33.234;-60.334;2023-05-18T10:58:26;13.40;92.90
55771;DHT22;41687;-33.234;-60.334;2023-05-18T11:00:57;13.40;92.90
55771;DHT22;41687;-33.234;-60.334;2023-05-18T11:03:25;13.40;92.90
55771;DHT22;41687;-33.234;-60.334;2023-05-18T11:06:08;13.40;92.60
55771;DHT22;41687;-33.234;-60.334;2023-05-18T11:08:47;13.50;92.80
55771;DHT22;41687;-33.234;-60.334;2023-05-18T11:11:15;13.40;92.50
55771;DHT22;41687;-33.234;-60.334;2023-05-18T11:13:46;13.40;92.50
55771;DHT22;41687;-33.234;-60.334;2023-05-18T11:16:16;13.40;92.40
55771;DHT22;41687;-33.234;-60.334;2023-05-18T11:18:44;13.50;92.40
55771;DHT22;41687;-33.234;-60.334;2023-05-18T11:21:30;13.50;92.30
55771;DHT22;41687;-33.234;-60.334;2023-05-18T11:24:30;14.30;91.70
55771;DHT22;41687;-33.234;-60.334;2023-05-18T11:27:00;16.10;87.90
55771;DHT22;41687;-33.234;-60.334;2023-05-18T11:29:40;18.00;84.10
55771;DHT22;41687;-33.234;-60.334;2023-05-18T11:32:28;19.60;76.10
55771;DHT22;41687;-33.234;-60.334;2023-05-18T11:34:59;21.10;68.40
55771;DHT22;41687;-33.234;-60.334;2023-05-18T11:40:12;23.20;63.10
55771;DHT22;41687;-33.234;-60.334;2023-05-18T11:42:39;23.90;63.20
55771;DHT22;41687;-33.234;-60.334;2023-05-18T11:45:11;24.50;64.20
55771;DHT22;41687;-33.234;-60.334;2023-05-18T11:47:40;25.10;60.40
55771;DHT22;41687;-33.234;-60.334;2023-05-18T11:50:08;25.50;61.50
55771;DHT22;41687;-33.234;-60.334;2023-05-18T11:52:49;25.90;60.80
55771;DHT22;41687;-33.234;-60.334;2023-05-18T11:55:19;26.40;55.10
55771;DHT22;41687;-33.234;-60.334;2023-05-18T11:57:50;26.60;59.50
55771;DHT22;41687;-33.234;-60.334;2023-05-18T12:00:19;26.90;55.70
55771;DHT22;41687;-33.234;-60.334;2023-05-18T12:02:47;27.00;59.40
55771;DHT22;41687;-33.234;-60.334;2023-05-18T12:05:15;27.10;58.40
55771;DHT22;41687;-33.234;-60.334;2023-05-18T12:07:43;27.20;58.30
55771;DHT22;41687;-33.234;-60.334;2023-05-18T12:10:13;27.20;57.30
55771;DHT22;41687;-33.234;-60.334;2023-05-18T12:12:41;27.00;56.40
55771;DHT22;41687;-33.234;-60.334;2023-05-18T12:15:10;26.80;57.20
55771;DHT22;41687;-33.234;-60.334;2023-05-18T12:17:50;26.50;57.10
55771;DHT22;41687;-33.234;-60.334;2023-05-18T12:20:19;26.40;53.40
55771;DHT22;41687;-33.234;-60.334;2023-05-18T12:22:50;26.00;57.20
55771;DHT22;41687;-33.234;-60.334;2023-05-18T12:25:25;25.50;57.60
55771;DHT22;41687;-33.234;-60.334;2023-05-18T12:27:54;25.10;57.10
55771;DHT22;41687;-33.234;-60.334;2023-05-18T12:30:24;24.80;59.10
55771;DHT22;41687;-33.234;-60.334;2023-05-18T12:32:53;24.30;58.90
55771;DHT22;41687;-33.234;-60.334;2023-05-18T12:35:25;24.00;59.70
55771;DHT22;41687;-33.234;-60.334;2023-05-18T12:37:53;23.70;58.80
55771;DHT22;41687;-33.234;-60.334;2023-05-18T12:40:27;23.50;62.20
55771;DHT22;41687;-33.234;-60.334;2023-05-18T12:43:03;23.40;60.80
55771;DHT22;41687;-33.234;-60.334;2023-05-18T12:45:32;23.20;61.70
55771;DHT22;41687;-33.234;-60.334;2023-05-18T12:48:07;22.90;61.00
55771;DHT22;41687;-33.234;-60.334;2023-05-18T12:50:35;22.60;60.30
55771;DHT22;41687;-33.234;-60.334;2023-05-18T12:53:04;22.00;62.80
55771;DHT22;41687;-33.234;-60.334;2023-05-18T12:55:32;21.70;64.40
55771;DHT22;41687;-33.234;-60.334;2023-05-18T12:58:05;21.40;65.40
55771;DHT22;41687;-33.234;-60.334;2023-05-18T13:00:35;21.10;64.40
55771;DHT22;41687;-33.234;-60.334;2023-05-18T13:03:13;20.80;66.10
55771;DHT22;41687;-33.234;-60.334;2023-05-18T13:05:43;20.60;63.90
55771;DHT22;41687;-33.234;-60.334;2023-05-18T13:08:15;20.40;66.70
55771;DHT22;41687;-33.234;-60.334;2023-05-18T13:10:47;20.20;66.00
55771;DHT22;41687;-33.234;-60.334;2023-05-18T13:13:15;20.10;67.50
55771;DHT22;41687;-33.234;-60.334;2023-05-18T13:15:43;19.90;67.30
55771;DHT22;41687;-33.234;-60.334;2023-05-18T13:18:11;19.70;67.60
55771;DHT22;41687;-33.234;-60.334;2023-05-18T13:20:43;19.70;68.60
55771;DHT22;41687;-33.234;-60.334;2023-05-18T13:23:15;19.60;68.70
55771;DHT22;41687;-33.234;-60.334;2023-05-18T13:25:45;19.50;68.60
55771;DHT22;41687;-33.234;-60.334;2023-05-18T13:28:14;19.50;67.70
55771;DHT22;41687;-33.234;-60.334;2023-05-18T13:30:43;19.40;67.90
55771;DHT22;41687;-33.234;-60.334;2023-05-18T13:33:11;19.40;66.60
55771;DHT22;41687;-33.234;-60.334;2023-05-18T13:35:40;19.30;66.60
55771;DHT22;41687;-33.234;-60.334;2023-05-18T13:38:09;19.30;67.30
55771;DHT22;41687;-33.234;-60.334;2023-05-18T13:40:37;19.20;67.40
55771;DHT22;41687;-33.234;-60.334;2023-05-18T13:43:04;19.20;67.30
55771;DHT22;41687;-33.234;-60.334;2023-05-18T13:45:33;19.10;67.40
55771;DHT22;41687;-33.234;-60.334;2023-05-18T13:48:01;19.20;67.90
55771;DHT22;41687;-33.234;-60.334;2023-05-18T13:50:33;19.10;67.60
55771;DHT22;41687;-33.234;-60.334;2023-05-18T13:53:00;19.10;67.10
55771;DHT22;41687;-33.234;-60.334;2023-05-18T13:55:28;19.00;66.70
55771;DHT22;41687;-33.234;-60.334;2023-05-18T13:57:56;19.00;67.60
55771;DHT22;41687;-33.234;-60.334;2023-05-18T14:00:23;19.00;69.60
55771;DHT22;41687;-33.234;-60.334;2023-05-18T14:02:51;19.00;68.20
55771;DHT22;41687;-33.234;-60.334;2023-05-18T14:05:19;18.90;67.20
55771;DHT22;41687;-33.234;-60.334;2023-05-18T14:07:47;18.90;66.90
55771;DHT22;41687;-33.234;-60.334;2023-05-18T14:10:16;18.80;66.80
55771;DHT22;41687;-33.234;-60.334;2023-05-18T14:12:44;18.80;67.40
55771;DHT22;41687;-33.234;-60.334;2023-05-18T14:15:12;18.80;66.30
55771;DHT22;41687;-33.234;-60.334;2023-05-18T14:17:40;18.80;66.80
55771;DHT22;41687;-33.234;-60.334;2023-05-18T14:20:09;18.80;66.80
55771;DHT22;41687;-33.234;-60.334;2023-05-18T14:22:37;18.80;66.00
55771;DHT22;41687;-33.234;-60.334;2023-05-18T14:25:05;18.80;64.80
55771;DHT22;41687;-33.234;-60.334;2023-05-18T14:27:32;18.70;65.90
55771;DHT22;41687;-33.234;-60.334;2023-05-18T14:30:00;18.70;65.80
55771;DHT22;41687;-33.234;-60.334;2023-05-18T14:32:28;18.80;65.50
55771;DHT22;41687;-33.234;-60.334;2023-05-18T14:34:55;18.70;65.20
55771;DHT22;41687;-33.234;-60.334;2023-05-18T14:37:23;18.70;66.40
55771;DHT22;41687;-33.234;-60.334;2023-05-18T14:39:51;18.80;65.50
55771;DHT22;41687;-33.234;-60.334;2023-05-18T14:42:19;18.70;66.30
55771;DHT22;41687;-33.234;-60.334;2023-05-18T14:44:46;18.70;65.50
55771;DHT22;41687;-33.234;-60.334;2023-05-18T14:47:14;18.70;66.20
55771;DHT22;41687;-33.234;-60.334;2023-05-18T14:49:43;18.70;66.40
55771;DHT22;41687;-33.234;-60.334;2023-05-18T14:52:10;18.60;65.40
55771;DHT22;41687;-33.234;-60.334;2023-05-18T14:54:38;18.60;65.10
55771;DHT22;41687;-33.234;-60.334;2023-05-18T14:57:06;18.60;63.60
55771;DHT22;41687;-33.234;-60.334;2023-05-18T14:59:33;18.50;63.70
55771;DHT22;41687;-33.234;-60.334;2023-05-18T15:02:01;18.40;64.00
55771;DHT22;41687;-33.234;-60.334;2023-05-18T15:04:28;18.40;65.50
55771;DHT22;41687;-33.234;-60.334;2023-05-18T15:06:56;18.40;65.80
55771;DHT22;41687;-33.234;-60.334;2023-05-18T15:09:24;18.50;66.00
55771;DHT22;41687;-33.234;-60.334;2023-05-18T15:11:51;18.40;65.50
55771;DHT22;41687;-33.234;-60.334;2023-05-18T15:14:19;18.50;65.10